TimeMST,TemperatureF,Dew PointF,Humidity,Sea Level PressureIn,VisibilityMPH,Wind Direction,Wind SpeedMPH,Gust SpeedMPH,PrecipitationIn,Events,Conditions,WindDirDegrees,DateUTC
12:22 AM,-2.2,-9.4,71,30.00,2.0,North,5.8,-,0.00,Snow,Light Snow,360,2014-02-04 07:22:00
12:45 AM,-2.2,-9.4,71,30.00,3.0,NNW,8.1,-,0.00,Snow,Light Snow,330,2014-02-04 07:45:00
12:53 AM,-2.9,-11.0,68,30.31,4.0,NW,8.1,-,0.00,,Haze,310,2014-02-04 07:53:00
1:24 AM,-2.2,-11.2,66,30.00,2.5,NW,8.1,-,0.00,Snow,Light Snow,310,2014-02-04 08:24:00
1:38 AM,-2.2,-11.2,66,30.00,3.0,NNW,6.9,-,0.00,Snow,Light Snow,330,2014-02-04 08:38:00
1:53 AM,-4.0,-11.0,72,30.33,4.0,NW,6.9,-,0.00,,Haze,310,2014-02-04 08:53:00
2:12 AM,-4.0,-11.2,71,30.01,2.5,NW,8.1,-,0.00,Snow,Light Snow,320,2014-02-04 09:12:00
2:27 AM,-4.0,-11.2,71,30.02,3.0,NW,9.2,-,0.00,Snow,Light Snow,320,2014-02-04 09:27:00
2:53 AM,-5.1,-11.9,72,30.36,6.0,North,5.8,-,0.00,,Haze,350,2014-02-04 09:53:00
3:53 AM,-9.0,-14.1,79,30.39,10.0,Calm,Calm,-,N/A,,Overcast,0,2014-02-04 10:53:00
4:53 AM,-9.0,-14.1,79,30.40,8.0,ESE,3.5,-,N/A,,Overcast,110,2014-02-04 11:53:00
5:53 AM,-9.0,-14.1,79,30.43,3.0,Calm,Calm,-,0.00,Snow,Light Snow,0,2014-02-04 12:53:00
6:01 AM,-9.4,-14.8,77,30.06,2.5,Calm,Calm,-,0.00,Snow,Light Snow,0,2014-02-04 13:01:00
6:11 AM,-9.4,-14.8,77,30.07,3.0,Calm,Calm,-,0.00,Snow,Light Snow,0,2014-02-04 13:11:00
6:44 AM,-11.2,-16.6,77,30.06,5.0,SE,3.5,-,0.00,,Haze,140,2014-02-04 13:44:00
6:53 AM,-11.9,-16.1,82,30.45,6.0,Calm,Calm,-,0.00,,Overcast,0,2014-02-04 13:53:00
7:23 AM,-11.2,-16.6,77,30.07,8.0,ENE,3.5,-,N/A,,Overcast,70,2014-02-04 14:23:00
7:53 AM,-14.1,-18.0,82,30.48,8.0,Calm,Calm,-,N/A,,Overcast,0,2014-02-04 14:53:00
8:53 AM,-11.9,-18.0,74,30.51,7.0,North,5.8,-,N/A,,Overcast,350,2014-02-04 15:53:00
9:53 AM,-9.9,-16.1,74,30.51,10.0,Calm,Calm,-,N/A,,Overcast,0,2014-02-04 16:53:00
10:53 AM,-9.9,-17.0,71,30.53,5.0,WNW,6.9,-,N/A,,Haze,300,2014-02-04 17:53:00
11:53 AM,-9.0,-16.1,71,30.53,10.0,NW,4.6,-,N/A,,Overcast,310,2014-02-04 18:53:00
12:19 PM,-7.6,-16.6,65,30.13,10.0,NW,4.6,-,N/A,,Overcast,310,2014-02-04 19:19:00
12:53 PM,-5.1,-14.1,65,30.50,7.0,Calm,Calm,-,N/A,,Overcast,0,2014-02-04 19:53:00
1:39 PM,-2.2,-13.0,60,30.11,2.0,North,3.5,-,0.00,Snow,Light Snow,350,2014-02-04 20:39:00
1:53 PM,-2.9,-11.9,65,30.48,2.5,Calm,Calm,-,0.00,Snow,Light Snow,0,2014-02-04 20:53:00
2:19 PM,-2.2,-11.2,66,30.10,3.0,North,4.6,-,0.00,Snow,Light Snow,10,2014-02-04 21:19:00
2:31 PM,-2.2,-11.2,66,30.10,2.0,NNW,5.8,-,0.00,Snow,Light Snow,330,2014-02-04 21:31:00
2:41 PM,-2.2,-11.2,66,30.10,1.8,North,4.6,-,0.00,Snow,Light Snow,360,2014-02-04 21:41:00
2:53 PM,-2.9,-11.0,68,30.48,2.5,NNW,3.5,-,0.00,Snow,Light Snow,340,2014-02-04 21:53:00
2:56 PM,-2.2,-11.2,66,30.10,3.0,Calm,Calm,-,0.00,Snow,Light Snow,0,2014-02-04 21:56:00
3:07 PM,-4.0,-11.2,71,30.10,6.0,NW,3.5,-,0.00,,Haze,310,2014-02-04 22:07:00
3:53 PM,-2.0,-11.9,63,30.51,7.0,NW,6.9,-,0.00,,Overcast,310,2014-02-04 22:53:00
4:03 PM,-2.2,-11.2,66,30.11,5.0,NW,6.9,-,N/A,,Haze,310,2014-02-04 23:03:00
4:53 PM,-4.0,-13.0,65,30.53,10.0,SSE,8.1,-,0.00,,Overcast,150,2014-02-04 23:53:00
5:02 PM,-5.8,-14.8,65,30.13,10.0,SSE,13.8,-,N/A,,Overcast,150,2014-02-05 00:02:00
5:53 PM,-7.1,-15.0,68,30.55,8.0,SE,13.8,-,N/A,,Overcast,140,2014-02-05 00:53:00
6:53 PM,-7.1,-16.1,65,30.58,10.0,South,10.4,-,N/A,,Overcast,170,2014-02-05 01:53:00
7:53 PM,-8.0,-15.0,71,30.60,4.0,NW,4.6,-,0.00,Snow,Light Snow,320,2014-02-05 02:53:00
8:53 PM,-9.0,-15.0,75,30.61,8.0,NW,3.5,-,0.00,,Overcast,310,2014-02-05 03:53:00
9:53 PM,-9.0,-16.1,71,30.62,4.0,NW,4.6,-,N/A,,Haze,320,2014-02-05 04:53:00
10:53 PM,-11.0,-16.1,78,30.64,6.0,NW,4.6,-,N/A,,Haze,320,2014-02-05 05:53:00
11:07 PM,-11.2,-16.6,77,30.21,4.0,Calm,Calm,-,N/A,,Haze,0,2014-02-05 06:07:00
11:53 PM,-13.0,-22.0,64,30.66,10.0,North,3.5,-,N/A,,Overcast,360,2014-02-05 06:53:00